createdAt,value
2019-03-23T00:00:54.762Z,4.80
2019-03-23T00:03:24.551Z,4.67
2019-03-23T00:05:54.427Z,5.20
2019-03-23T00:08:24.298Z,5.17
2019-03-23T00:10:54.099Z,4.63
2019-03-23T00:13:23.922Z,5.33
2019-03-23T00:15:53.729Z,5.93
2019-03-23T00:18:23.521Z,6.40
2019-03-23T00:20:53.314Z,7.42
2019-03-23T00:23:23.126Z,7.27
2019-03-23T00:25:52.914Z,7.30
2019-03-23T00:28:22.711Z,7.10
2019-03-23T00:30:52.526Z,7.47
2019-03-23T00:33:22.333Z,8.50
2019-03-23T00:35:52.157Z,9.77
2019-03-23T00:38:21.981Z,9.93
2019-03-23T00:40:51.886Z,9.70
2019-03-23T00:43:21.658Z,10.07
2019-03-23T00:45:51.502Z,10.60
2019-03-23T00:48:21.287Z,11.13
2019-03-23T00:50:51.081Z,11.77
2019-03-23T00:53:20.926Z,11.77
2019-03-23T00:55:50.700Z,10.53
2019-03-23T00:58:20.501Z,11.63
2019-03-23T01:00:50.319Z,12.90
2019-03-23T01:03:20.137Z,12.27
2019-03-23T01:05:49.910Z,12.20
2019-03-23T01:08:19.715Z,13.67
2019-03-23T01:10:49.521Z,14.47
2019-03-23T01:13:19.294Z,15.80
2019-03-23T01:15:49.111Z,15.27
2019-03-23T01:18:18.902Z,16.13
2019-03-23T01:20:49.920Z,15.93
2019-03-23T01:23:19.951Z,15.63
2019-03-23T01:25:49.830Z,16.40
2019-03-23T01:28:19.661Z,16.57
2019-03-23T01:30:49.477Z,17.03
2019-03-23T01:33:19.283Z,17.70
2019-03-23T01:35:49.147Z,18.00
2019-03-23T01:38:18.977Z,19.23
2019-03-23T01:40:48.768Z,18.73
2019-03-23T01:43:18.598Z,19.83
2019-03-23T01:45:48.390Z,20.50
2019-03-23T01:48:18.195Z,22.43
2019-03-23T01:50:48.019Z,25.43
2019-03-23T01:53:17.816Z,20.70
2019-03-23T01:55:47.618Z,22.03
2019-03-23T01:58:17.401Z,20.93
2019-03-23T02:00:47.209Z,22.83
2019-03-23T02:03:17.415Z,23.40
2019-03-23T02:05:47.211Z,22.37
2019-03-23T02:08:17.031Z,22.20
2019-03-23T02:10:46.817Z,22.53
2019-03-23T02:13:16.603Z,21.87
2019-03-23T02:15:46.405Z,22.97
2019-03-23T02:18:16.470Z,22.77
2019-03-23T02:20:46.253Z,24.20
2019-03-23T02:23:16.057Z,22.70
2019-03-23T02:25:45.861Z,22.63
2019-03-23T02:28:15.663Z,22.93
2019-03-23T02:30:45.467Z,22.03
2019-03-23T02:33:15.340Z,22.77
2019-03-23T02:35:45.132Z,21.93
2019-03-23T02:38:14.929Z,23.17
2019-03-23T02:40:44.722Z,21.47
2019-03-23T02:43:14.527Z,23.13
2019-03-23T02:45:44.346Z,24.20
2019-03-23T02:48:14.501Z,22.73
2019-03-23T02:50:44.560Z,21.43
2019-03-23T02:53:14.355Z,24.83
2019-03-23T02:55:44.219Z,24.60
2019-03-23T02:58:14.019Z,25.10
2019-03-23T03:00:43.796Z,29.07
2019-03-23T03:03:13.620Z,32.47
2019-03-23T03:05:43.430Z,33.07
2019-03-23T03:08:13.642Z,32.47
2019-03-23T03:10:43.808Z,32.27
2019-03-23T03:13:13.614Z,34.37
2019-03-23T03:15:43.410Z,33.50
2019-03-23T03:18:13.225Z,34.50
2019-03-23T03:20:43.039Z,36.07
2019-03-23T03:23:12.832Z,34.33
2019-03-23T03:25:42.658Z,34.07
2019-03-23T03:28:12.782Z,33.93
2019-03-23T03:30:42.583Z,35.87
2019-03-23T03:33:12.425Z,36.60
2019-03-23T03:35:42.308Z,36.27
2019-03-23T03:38:12.123Z,37.17
2019-03-23T03:40:41.913Z,38.03
2019-03-23T03:43:11.710Z,37.27
2019-03-23T03:45:41.490Z,38.73
2019-03-23T03:48:11.307Z,39.93
2019-03-23T03:50:41.087Z,41.97
2019-03-23T03:53:10.878Z,39.93
2019-03-23T03:55:40.688Z,39.00
2019-03-23T03:58:10.513Z,40.97
2019-03-23T04:00:40.293Z,42.40
2019-03-23T04:03:10.118Z,41.87
2019-03-23T04:05:39.982Z,48.70
2019-03-23T04:08:11.789Z,45.27
2019-03-23T04:10:41.290Z,42.53
2019-03-23T04:13:11.082Z,44.87
2019-03-23T04:15:40.889Z,42.43
2019-03-23T04:18:10.672Z,43.13
2019-03-23T04:20:40.456Z,46.73
2019-03-23T04:23:10.478Z,45.10
2019-03-23T04:25:40.291Z,47.23
2019-03-23T04:28:10.058Z,50.03
2019-03-23T04:30:39.862Z,48.77
2019-03-23T04:33:09.696Z,51.70
2019-03-23T04:35:39.489Z,49.80
2019-03-23T04:38:09.323Z,50.90
2019-03-23T04:40:39.118Z,50.47
2019-03-23T04:43:08.889Z,56.73
2019-03-23T04:45:38.722Z,55.67
2019-03-23T04:48:08.514Z,57.77
2019-03-23T04:50:38.638Z,59.10
2019-03-23T04:53:08.678Z,56.20
2019-03-23T04:55:38.474Z,54.90
2019-03-23T04:58:08.255Z,58.43
2019-03-23T05:00:38.083Z,56.43
2019-03-23T05:03:07.897Z,56.67
2019-03-23T05:05:37.703Z,56.80
2019-03-23T05:08:07.530Z,59.47
2019-03-23T05:10:37.341Z,54.77
2019-03-23T05:13:07.142Z,55.53
2019-03-23T05:15:36.935Z,56.30
2019-03-23T05:18:06.718Z,54.83
2019-03-23T05:20:36.537Z,57.53
2019-03-23T05:23:06.313Z,56.30
2019-03-23T05:25:36.102Z,56.67
2019-03-23T05:28:05.923Z,59.97
2019-03-23T05:30:35.699Z,57.00
2019-03-23T05:33:05.501Z,54.63
2019-03-23T05:35:35.302Z,55.40
2019-03-23T05:38:05.111Z,59.00
2019-03-23T05:40:34.916Z,56.00
2019-03-23T05:43:04.759Z,54.70
2019-03-23T05:45:34.575Z,56.33
2019-03-23T05:48:04.374Z,57.90
2019-03-23T05:50:34.176Z,55.50
2019-03-23T05:53:04.001Z,57.23
2019-03-23T05:55:33.826Z,56.93
2019-03-23T05:58:03.614Z,51.33
2019-03-23T06:00:33.437Z,48.90
2019-03-23T06:03:03.233Z,47.20
2019-03-23T06:05:33.038Z,44.37
2019-03-23T06:08:02.821Z,43.37
2019-03-23T06:10:32.966Z,40.60
2019-03-23T06:13:02.774Z,41.77
2019-03-23T06:15:32.554Z,42.27
2019-03-23T06:18:02.363Z,40.63
2019-03-23T06:20:32.159Z,40.63
2019-03-23T06:23:01.951Z,41.30
2019-03-23T06:25:31.748Z,41.33
2019-03-23T06:28:01.530Z,40.40
2019-03-23T06:30:31.337Z,40.00
2019-03-23T06:33:01.142Z,39.83
2019-03-23T06:35:30.938Z,39.00
2019-03-23T06:38:00.739Z,38.80
2019-03-23T06:40:30.570Z,39.27
2019-03-23T06:43:00.380Z,40.37
2019-03-23T06:45:30.228Z,40.83
2019-03-23T06:48:00.014Z,41.50
2019-03-23T06:50:29.813Z,40.17
2019-03-23T06:52:59.643Z,42.33
2019-03-23T06:55:29.450Z,40.27
2019-03-23T06:57:59.259Z,41.70
2019-03-23T07:00:29.140Z,43.50
2019-03-23T07:02:58.954Z,39.13
2019-03-23T07:05:28.733Z,42.50
2019-03-23T07:07:58.525Z,47.40
2019-03-23T07:10:28.354Z,42.80
2019-03-23T07:12:58.201Z,44.53
2019-03-23T07:15:27.998Z,41.37
2019-03-23T07:17:57.820Z,43.27
2019-03-23T07:20:27.668Z,44.63
2019-03-23T07:22:57.464Z,47.13
2019-03-23T07:25:27.274Z,44.37
2019-03-23T07:27:57.117Z,49.17
2019-03-23T07:30:26.987Z,49.27
2019-03-23T07:32:56.796Z,51.40
2019-03-23T07:35:26.679Z,50.43
2019-03-23T07:37:56.489Z,53.47
2019-03-23T07:40:26.327Z,52.17
2019-03-23T07:42:56.276Z,51.70
2019-03-23T07:45:26.071Z,48.13
2019-03-23T07:47:55.867Z,45.30
2019-03-23T07:50:25.666Z,47.17
2019-03-23T07:52:55.502Z,44.87
2019-03-23T07:55:25.307Z,48.13
2019-03-23T07:57:55.155Z,46.00
2019-03-23T08:00:24.957Z,46.17
2019-03-23T08:02:54.779Z,45.60
2019-03-23T08:05:24.671Z,42.40
2019-03-23T08:07:54.499Z,42.67
2019-03-23T08:10:29.247Z,37.87
2019-03-23T08:12:59.064Z,42.00
2019-03-23T08:15:28.941Z,41.17
2019-03-23T08:17:58.742Z,40.83
2019-03-23T08:20:28.595Z,41.90
2019-03-23T08:22:58.386Z,42.10
2019-03-23T08:25:28.188Z,40.97
2019-03-23T08:27:58.048Z,40.67
2019-03-23T08:30:27.842Z,39.90
2019-03-23T08:32:57.939Z,39.53
2019-03-23T08:35:27.753Z,40.47
2019-03-23T08:37:57.548Z,41.37
2019-03-23T08:40:27.395Z,42.57
2019-03-23T08:42:57.319Z,41.77
2019-03-23T08:45:27.112Z,43.43
2019-03-23T08:47:56.965Z,41.73
2019-03-23T08:50:26.825Z,44.87
2019-03-23T08:52:56.719Z,46.57
2019-03-23T08:55:26.565Z,42.83
2019-03-23T08:57:56.451Z,42.57
2019-03-23T09:00:26.298Z,42.90
2019-03-23T09:02:56.106Z,43.77
2019-03-23T09:05:25.972Z,43.67
2019-03-23T09:07:55.803Z,42.57
2019-03-23T09:10:25.640Z,42.67
2019-03-23T09:12:55.575Z,40.57
2019-03-23T09:15:25.395Z,40.37
2019-03-23T09:17:55.223Z,42.10
2019-03-23T09:20:24.999Z,42.20
2019-03-23T09:22:55.170Z,41.17
2019-03-23T09:25:24.990Z,42.53
2019-03-23T09:27:54.796Z,42.53
2019-03-23T09:30:24.686Z,42.90
2019-03-23T09:32:54.503Z,42.43
2019-03-23T09:35:24.337Z,42.23
2019-03-23T09:37:54.198Z,42.10
2019-03-23T09:40:24.004Z,41.93
2019-03-23T09:42:53.859Z,44.13
2019-03-23T09:45:23.722Z,44.40
2019-03-23T09:47:53.572Z,45.30
2019-03-23T09:50:23.493Z,43.73
2019-03-23T09:52:53.328Z,43.43
2019-03-23T09:55:23.177Z,43.20
2019-03-23T09:57:53.406Z,44.47
2019-03-23T10:00:23.250Z,46.43
2019-03-23T10:02:53.058Z,44.43
2019-03-23T10:05:22.871Z,42.63
2019-03-23T10:07:52.686Z,47.05
2019-03-23T10:10:22.532Z,39.53
2019-03-23T10:12:52.424Z,44.27
2019-03-23T10:15:22.292Z,41.07
2019-03-23T10:17:52.153Z,46.33
2019-03-23T10:20:21.998Z,42.03
2019-03-23T10:22:51.862Z,48.05
2019-03-23T10:25:21.896Z,44.83
2019-03-23T10:27:51.773Z,49.23
2019-03-23T10:30:21.628Z,51.83
2019-03-23T10:32:51.490Z,52.47
2019-03-23T10:35:21.308Z,51.03
2019-03-23T10:37:51.162Z,51.50
2019-03-23T10:40:31.678Z,49.67
2019-03-23T10:42:52.531Z,48.30
2019-03-23T10:45:22.371Z,49.20
2019-03-23T10:47:52.258Z,46.70
2019-03-23T10:50:22.299Z,47.43
2019-03-23T10:52:52.172Z,44.77
2019-03-23T10:55:22.077Z,44.83
2019-03-23T10:57:51.993Z,43.17
2019-03-23T11:00:21.821Z,45.63
2019-03-23T11:02:51.757Z,45.73
2019-03-23T11:05:21.570Z,42.03
2019-03-23T11:07:51.397Z,41.47
2019-03-23T11:10:21.190Z,42.67
2019-03-23T11:12:51.047Z,114.73
2019-03-23T11:15:20.905Z,39.77
2019-03-23T11:17:50.715Z,38.53
2019-03-23T11:20:20.576Z,35.00
2019-03-23T11:22:50.435Z,35.83
2019-03-23T11:25:20.284Z,35.20
2019-03-23T11:27:50.194Z,36.97
2019-03-23T11:30:20.052Z,35.47
2019-03-23T11:32:49.916Z,37.17
2019-03-23T11:35:19.871Z,36.70
2019-03-23T11:37:50.080Z,36.50
2019-03-23T11:40:20.263Z,37.10
2019-03-23T11:42:50.535Z,35.50
2019-03-23T11:45:20.715Z,35.67
2019-03-23T11:47:50.550Z,36.20
2019-03-23T11:50:20.376Z,36.53
2019-03-23T11:52:50.220Z,36.37
2019-03-23T11:55:20.069Z,36.03
2019-03-23T11:57:49.912Z,35.93
2019-03-23T12:00:19.776Z,36.33
2019-03-23T12:02:49.616Z,41.07
2019-03-23T12:05:19.446Z,38.83
2019-03-23T12:07:49.339Z,38.37
2019-03-23T12:10:19.219Z,71.43
2019-03-23T12:12:49.068Z,38.23
2019-03-23T12:15:18.922Z,38.90
2019-03-23T12:17:48.874Z,38.17
2019-03-23T12:20:18.751Z,38.40
2019-03-23T12:22:48.610Z,38.10
2019-03-23T12:25:18.499Z,38.50
2019-03-23T12:27:48.412Z,38.93
2019-03-23T12:30:18.574Z,40.30
2019-03-23T12:32:48.541Z,38.20
2019-03-23T12:35:18.451Z,39.63
2019-03-23T12:37:48.348Z,38.43
2019-03-23T12:40:19.215Z,38.03
2019-03-23T12:42:49.103Z,39.10
2019-03-23T12:45:19.195Z,40.57
2019-03-23T12:47:49.047Z,37.40
2019-03-23T12:50:18.912Z,39.13
2019-03-23T12:52:48.751Z,38.37
2019-03-23T12:55:18.578Z,39.37
2019-03-23T12:57:48.770Z,38.70
2019-03-23T13:00:18.670Z,36.37
2019-03-23T13:02:48.560Z,39.40
2019-03-23T13:05:18.416Z,37.23
2019-03-23T13:07:48.306Z,38.90
2019-03-23T13:10:18.163Z,44.55
2019-03-23T13:12:48.012Z,39.93
2019-03-23T13:15:17.989Z,40.73
2019-03-23T13:17:47.908Z,39.20
2019-03-23T13:20:17.871Z,38.57
2019-03-23T13:22:47.744Z,39.43
2019-03-23T13:25:17.539Z,39.53
2019-03-23T13:27:47.599Z,39.93
2019-03-23T13:30:17.701Z,38.77
2019-03-23T13:32:47.654Z,37.93
2019-03-23T13:35:17.544Z,42.93
2019-03-23T13:37:47.395Z,44.13
2019-03-23T13:40:17.256Z,41.77
2019-03-23T13:42:47.114Z,44.20
2019-03-23T13:45:16.938Z,45.97
2019-03-23T13:47:46.794Z,43.87
2019-03-23T13:50:22.498Z,46.60
2019-03-23T13:52:52.703Z,45.87
2019-03-23T13:55:29.839Z,49.17
2019-03-23T13:58:09.324Z,46.13
2019-03-23T14:00:39.194Z,48.90
2019-03-23T14:03:09.034Z,49.20
2019-03-23T14:05:39.294Z,46.83
2019-03-23T14:08:09.110Z,47.17
2019-03-23T14:10:39.044Z,44.30
2019-03-23T14:13:08.911Z,46.53
2019-03-23T14:15:38.752Z,46.07
2019-03-23T14:18:08.566Z,46.50
2019-03-23T14:20:38.421Z,45.47
2019-03-23T14:23:08.279Z,45.43
2019-03-23T14:25:38.097Z,43.93
2019-03-23T14:28:08.281Z,42.60
2019-03-23T14:30:38.230Z,44.33
2019-03-23T14:33:08.011Z,44.53
2019-03-23T14:35:37.927Z,45.53
2019-03-23T14:38:07.771Z,43.50
2019-03-23T14:40:37.647Z,44.20
2019-03-23T14:43:07.457Z,46.87
2019-03-23T14:45:37.370Z,44.83
2019-03-23T14:48:07.206Z,46.63
2019-03-23T14:50:37.061Z,46.30
2019-03-23T14:53:06.941Z,44.97
2019-03-23T14:55:37.559Z,43.47
2019-03-23T14:58:07.446Z,46.10
2019-03-23T15:00:37.300Z,45.03
2019-03-23T15:03:07.162Z,46.93
2019-03-23T15:05:37.033Z,46.47
2019-03-23T15:08:06.964Z,44.27
2019-03-23T15:10:36.975Z,43.63
2019-03-23T15:13:06.811Z,42.63
2019-03-23T15:15:36.675Z,40.63
2019-03-23T15:18:06.530Z,42.87
2019-03-23T15:20:36.422Z,43.07
2019-03-23T15:23:06.282Z,45.25
2019-03-23T15:25:36.138Z,41.27
2019-03-23T15:28:06.036Z,40.53
2019-03-23T15:30:35.976Z,40.60
2019-03-23T15:33:05.910Z,41.33
2019-03-23T15:35:35.794Z,39.47
2019-03-23T15:38:05.626Z,40.83
2019-03-23T15:40:35.997Z,38.33
2019-03-23T15:43:05.895Z,38.93
2019-03-23T15:45:35.785Z,40.27
2019-03-23T15:48:05.711Z,41.50
2019-03-23T15:50:35.561Z,40.37
2019-03-23T15:53:05.437Z,40.50
2019-03-23T15:55:35.310Z,40.00
2019-03-23T15:58:05.168Z,40.60
2019-03-23T16:00:34.994Z,45.10
2019-03-23T16:03:04.876Z,42.37
2019-03-23T16:05:34.734Z,40.27
2019-03-23T16:08:04.662Z,40.67
2019-03-23T16:10:34.479Z,39.57
2019-03-23T16:13:04.291Z,39.33
2019-03-23T16:15:34.128Z,39.83
2019-03-23T16:18:03.979Z,39.37
2019-03-23T16:20:33.863Z,38.60
2019-03-23T16:23:03.791Z,39.37
2019-03-23T16:25:33.664Z,40.80
2019-03-23T16:28:03.519Z,40.47
2019-03-23T16:30:34.405Z,38.60
2019-03-23T16:33:04.250Z,39.53
2019-03-23T16:35:34.146Z,37.50
2019-03-23T16:38:04.035Z,38.27
2019-03-23T16:40:33.926Z,38.13
2019-03-23T16:43:03.869Z,38.07
2019-03-23T16:45:33.762Z,39.13
2019-03-23T16:48:03.598Z,38.17
2019-03-23T16:50:33.499Z,38.33
2019-03-23T16:53:03.327Z,38.07
2019-03-23T16:55:33.178Z,38.60
2019-03-23T16:58:03.046Z,38.30
2019-03-23T17:00:39.726Z,40.23
2019-03-23T17:03:09.868Z,36.57
2019-03-23T17:05:39.694Z,38.50
2019-03-23T17:08:09.539Z,38.73
2019-03-23T17:10:39.366Z,40.47
2019-03-23T17:13:09.351Z,41.27
2019-03-23T17:15:39.220Z,39.70
2019-03-23T17:18:09.138Z,41.40
2019-03-23T17:20:38.947Z,41.90
2019-03-23T17:23:08.871Z,39.43
2019-03-23T17:25:38.747Z,42.67
2019-03-23T17:28:08.585Z,41.50
2019-03-23T17:30:38.410Z,38.67
2019-03-23T17:33:09.040Z,40.67
2019-03-23T17:35:38.901Z,39.43
2019-03-23T17:38:08.724Z,39.40
2019-03-23T17:40:38.691Z,40.73
2019-03-23T17:43:08.539Z,42.03
2019-03-23T17:45:38.430Z,39.87
2019-03-23T17:48:08.299Z,41.77
2019-03-23T17:50:38.103Z,41.17
2019-03-23T17:53:07.935Z,41.07
2019-03-23T17:55:37.879Z,40.17
2019-03-23T17:58:07.710Z,39.07
2019-03-23T18:00:37.552Z,40.23
2019-03-23T18:03:07.392Z,40.40
2019-03-23T18:05:37.248Z,39.07
2019-03-23T18:08:07.146Z,37.87
2019-03-23T18:10:36.988Z,39.60
2019-03-23T18:13:16.162Z,36.70
2019-03-23T18:15:38.437Z,37.27
2019-03-23T18:18:08.363Z,37.97
2019-03-23T18:20:38.215Z,38.20
2019-03-23T18:23:08.106Z,39.30
2019-03-23T18:25:38.004Z,38.17
2019-03-23T18:28:07.878Z,38.30
2019-03-23T18:30:40.195Z,39.97
2019-03-23T18:33:10.377Z,38.53
2019-03-23T18:35:40.393Z,38.90
2019-03-23T18:38:10.336Z,37.83
2019-03-23T18:40:40.154Z,39.10
2019-03-23T18:43:10.065Z,40.17
2019-03-23T18:45:39.951Z,39.73
2019-03-23T18:48:09.815Z,39.67
2019-03-23T18:50:39.641Z,40.30
2019-03-23T18:53:09.506Z,38.83
2019-03-23T18:55:39.444Z,39.93
2019-03-23T18:58:09.314Z,38.53
2019-03-23T19:00:40.618Z,40.97
2019-03-23T19:03:10.706Z,38.10
2019-03-23T19:05:40.542Z,39.27
2019-03-23T19:08:11.866Z,38.83
2019-03-23T19:10:42.034Z,40.40
2019-03-23T19:13:11.919Z,39.53
2019-03-23T19:15:41.785Z,38.13
2019-03-23T19:18:11.686Z,38.30
2019-03-23T19:20:41.521Z,41.37
2019-03-23T19:23:11.360Z,39.13
2019-03-23T19:25:41.244Z,41.03
2019-03-23T19:28:11.129Z,40.20
2019-03-23T19:30:40.969Z,41.53
2019-03-23T19:33:10.852Z,40.87
2019-03-23T19:35:40.747Z,39.83
2019-03-23T19:38:11.697Z,41.63
2019-03-23T19:40:41.537Z,41.13
2019-03-23T19:43:11.352Z,41.37
2019-03-23T19:45:41.210Z,41.67
2019-03-23T19:48:11.078Z,40.20
2019-03-23T19:50:40.954Z,39.80
2019-03-23T19:53:10.800Z,40.77
2019-03-23T19:55:40.699Z,40.67
2019-03-23T19:58:10.543Z,40.20
2019-03-23T20:00:40.377Z,39.67
2019-03-23T20:03:10.279Z,40.80
2019-03-23T20:05:40.176Z,40.63
2019-03-23T20:08:10.072Z,41.13
2019-03-23T20:10:39.930Z,40.47
2019-03-23T20:13:10.685Z,40.97
2019-03-23T20:15:40.960Z,43.17
2019-03-23T20:18:10.810Z,42.30
2019-03-23T20:20:40.664Z,44.20
2019-03-23T20:23:10.557Z,44.83
2019-03-23T20:25:40.480Z,42.77
2019-03-23T20:28:10.289Z,41.87
2019-03-23T20:30:40.132Z,43.70
2019-03-23T20:33:19.094Z,44.90
2019-03-23T20:35:41.619Z,41.67
2019-03-23T20:38:14.575Z,43.17
2019-03-23T20:40:44.432Z,42.20
2019-03-23T20:43:14.299Z,41.23
2019-03-23T20:45:44.228Z,41.47
2019-03-23T20:48:14.127Z,43.63
2019-03-23T20:50:44.427Z,44.07
2019-03-23T20:53:16.030Z,44.43
2019-03-23T20:55:45.952Z,43.60
2019-03-23T20:58:15.867Z,42.00
2019-03-23T21:00:45.708Z,44.77
2019-03-23T21:03:15.568Z,42.10
2019-03-23T21:05:45.451Z,42.17
2019-03-23T21:08:15.287Z,42.23
2019-03-23T21:10:45.157Z,41.40
2019-03-23T21:13:15.090Z,42.93
2019-03-23T21:15:44.913Z,40.77
2019-03-23T21:18:14.803Z,40.80
2019-03-23T21:20:44.655Z,41.83
2019-03-23T21:23:14.523Z,42.10
2019-03-23T21:25:44.686Z,40.43
2019-03-23T21:28:14.539Z,40.00
2019-03-23T21:30:44.359Z,41.40
2019-03-23T21:33:14.210Z,40.77
2019-03-23T21:35:44.011Z,39.97
2019-03-23T21:38:13.899Z,39.33
2019-03-23T21:40:43.726Z,39.67
2019-03-23T21:43:13.577Z,40.73
2019-03-23T21:45:43.778Z,39.20
2019-03-23T21:48:13.647Z,40.47
2019-03-23T21:50:47.762Z,45.10
2019-03-23T21:53:15.112Z,39.20
2019-03-23T21:55:44.987Z,39.70
2019-03-23T21:58:14.822Z,38.47
2019-03-23T22:00:44.697Z,38.67
2019-03-23T22:03:14.495Z,39.80
2019-03-23T22:05:44.377Z,41.17
2019-03-23T22:08:14.248Z,39.53
2019-03-23T22:10:44.039Z,39.00
2019-03-23T22:13:13.926Z,39.23
2019-03-23T22:15:43.780Z,38.90
2019-03-23T22:18:13.637Z,40.03
2019-03-23T22:20:43.510Z,39.37
2019-03-23T22:23:13.410Z,40.27
2019-03-23T22:25:43.292Z,39.30
2019-03-23T22:28:13.143Z,39.27
2019-03-23T22:30:42.994Z,37.67
2019-03-23T22:33:12.833Z,39.73
2019-03-23T22:35:42.668Z,40.37
2019-03-23T22:38:12.463Z,41.53
2019-03-23T22:40:42.355Z,40.63
2019-03-23T22:43:12.222Z,42.30
2019-03-23T22:45:42.047Z,40.23
2019-03-23T22:48:11.907Z,39.60
2019-03-23T22:50:41.697Z,39.73
2019-03-23T22:53:11.509Z,41.67
2019-03-23T22:55:41.341Z,41.53
2019-03-23T22:58:11.158Z,41.13
2019-03-23T23:00:49.002Z,40.60
2019-03-23T23:03:18.866Z,41.80
2019-03-23T23:05:48.686Z,39.30
2019-03-23T23:08:18.501Z,42.03
2019-03-23T23:10:48.347Z,40.37
2019-03-23T23:13:18.215Z,41.70
2019-03-23T23:15:48.096Z,40.70
2019-03-23T23:18:17.956Z,41.47
2019-03-23T23:20:47.871Z,40.77
2019-03-23T23:23:17.742Z,40.90
2019-03-23T23:25:47.610Z,41.00
2019-03-23T23:28:17.430Z,39.83
2019-03-23T23:30:47.309Z,42.77
2019-03-23T23:33:17.183Z,42.30
2019-03-23T23:35:47.065Z,40.83
2019-03-23T23:38:16.921Z,40.13
2019-03-23T23:40:46.757Z,41.63
2019-03-23T23:43:16.707Z,42.23
2019-03-23T23:45:46.614Z,41.57
2019-03-23T23:48:16.438Z,41.17
2019-03-23T23:50:46.271Z,39.27
2019-03-23T23:53:16.168Z,39.40
2019-03-23T23:55:46.007Z,40.00
2019-03-23T23:58:15.864Z,41.47
